Saint Martin, Ohio
Current Conditions -  °F | °C
As of 1:26 AM on Monday 26 Jan 2015 (Local Time) from KILN Reporting Station
Light Snow Light Snow  
Wind Chill: 11°   Ceiling: 1400
Heat Index: 24°   Visibility: 2mi
Dew Point: 21°   Wind: 15mph
Humidity: 88%   Direction: 20°NNE
Pressure: 29.71"   Gusts: 23mph
Location:  39.1737°N, 83.9342°W
Report Text: KILN 260626Z AUTO 02013G20KT 2SM -SN BR FEW008 OVC014 M04/M06 A2971 RMK AO2 P0001 T10441061
Loading
Personal Weather Stations






























Interactive Weather Map New forecast layout! Learn more

10-Day Weather Forecast

Advertisements
Track Severe Weather on mobile